DAL8384 KBHM-KATL
Flight info
| Callsign | DAL8384 |
|---|---|
| Flight time | N/A |
| Altitude | 19000 |
| Route | GUMMP DRSDN GNDLF3 |
| Aircraft | SF50/L-SDGRWY/L |
Departure
| Time | 2026-04-28 01:14 |
|---|---|
| Airport | Birmingham-Shuttlesworth International Airport (KBHM) |
Arrival
| Time | N/A |
|---|---|
| Airport | Hartsfield Jackson Atlanta International Airport (KATL) |
| Time | Latitude | Longitude | Altitude | Speed | Heading |
|---|---|---|---|---|---|
| 2026-04-28 01:03 | 33.56214 | -86.75333 | 620 ft | 0 kts | 130° |
| 2026-04-28 01:06 | 33.56213 | -86.75332 | 620 ft | 2 kts | 152° |
| 2026-04-28 01:07 | 33.56238 | -86.75356 | 620 ft | 12 kts | 325° |
| 2026-04-28 01:07 | 33.56243 | -86.75361 | 620 ft | 0 kts | 325° |
| 2026-04-28 01:07 | 33.56261 | -86.75364 | 622 ft | 10 kts | 19° |
| 2026-04-28 01:08 | 33.56355 | -86.75236 | 626 ft | 31 kts | 54° |
| 2026-04-28 01:08 | 33.56457 | -86.75123 | 625 ft | 17 kts | 2° |
| 2026-04-28 01:08 | 33.56543 | -86.75105 | 621 ft | 12 kts | 47° |
| 2026-04-28 01:08 | 33.56597 | -86.74995 | 626 ft | 21 kts | 76° |
| 2026-04-28 01:09 | 33.56621 | -86.74832 | 625 ft | 13 kts | 64° |
| 2026-04-28 01:09 | 33.56625 | -86.74824 | 627 ft | 0 kts | 58° |
| 2026-04-28 01:10 | 33.56636 | -86.74802 | 632 ft | 12 kts | 58° |
| 2026-04-28 01:10 | 33.56742 | -86.74617 | 629 ft | 31 kts | 54° |
| 2026-04-28 01:10 | 33.56845 | -86.74438 | 631 ft | 23 kts | 54° |
| 2026-04-28 01:11 | 33.56930 | -86.74292 | 629 ft | 19 kts | 54° |
| 2026-04-28 01:11 | 33.56996 | -86.74176 | 633 ft | 15 kts | 56° |
| 2026-04-28 01:11 | 33.57058 | -86.74067 | 631 ft | 16 kts | 57° |
| 2026-04-28 01:11 | 33.57125 | -86.73952 | 630 ft | 20 kts | 54° |
| 2026-04-28 01:12 | 33.57218 | -86.73831 | 632 ft | 18 kts | 0° |
| 2026-04-28 01:12 | 33.57269 | -86.73861 | 635 ft | 0 kts | 323° |
| 2026-04-28 01:13 | 33.57289 | -86.74023 | 634 ft | 33 kts | 234° |
| 2026-04-28 01:13 | 33.57002 | -86.74505 | 668 ft | 105 kts | 233° |
| 2026-04-28 01:14 | 33.56576 | -86.75378 | 1064 ft | 135 kts | 236° |
| 2026-04-28 01:14 | 33.56055 | -86.76466 | 1454 ft | 161 kts | 233° |
| 2026-04-28 01:14 | 33.55465 | -86.77590 | 1932 ft | 152 kts | 227° |
| 2026-04-28 01:14 | 33.54840 | -86.78561 | 2388 ft | 143 kts | 221° |
| 2026-04-28 01:15 | 33.54257 | -86.79531 | 2832 ft | 148 kts | 227° |